Time;durP1;ratioP1;P1;durP2;ratioP2;P2;SDS_P1;SDS_P2;PMS_P1;PMS_P2;Temp;Humidity;BMP_temperature;BMP_pressure;BME280_temperature;BME280_humidity;BME280_pressure;Samples;Min_cycle;Max_cycle;Signal;HPM_P1;HPM_P2
2021/12/16 00:29:04;;;;;;;51.17;17.17;;;;;;;1.40;100.00;98342.47;4920526;29;20071;-64
2021/12/16 00:34:09;;;;;;;45.80;16.70;;;;;;;1.34;100.00;98325.44;4890834;29;20047;-66
2021/12/16 00:36:38;;;;;;;32.88;14.15;;;;;;;1.35;100.00;98326.25;4925810;29;20047;-66
2021/12/16 00:39:09;;;;;;;28.40;12.68;;;;;;;1.38;100.00;98335.72;4921349;29;20067;-67
2021/12/16 00:41:36;;;;;;;34.33;13.93;;;;;;;1.36;100.00;98325.19;4926116;29;20071;-66
2021/12/16 00:44:14;;;;;;;35.17;13.60;;;;;;;1.28;100.00;98321.13;4925244;29;20375;-67
2021/12/16 00:47:02;;;;;;;36.97;14.32;;;;;;;1.17;100.00;98316.78;4924283;29;20477;-66
2021/12/16 00:54:43;;;;;;;28.73;12.60;;;;;;;1.08;100.00;98318.34;4925201;29;20036;-65
2021/12/16 00:57:13;;;;;;;31.88;14.02;;;;;;;1.20;100.00;98315.44;4918569;29;20135;-67
2021/12/16 00:59:42;;;;;;;24.95;11.95;;;;;;;0.99;100.00;98320.78;4924719;29;20135;-67
2021/12/16 01:51:24;;;;;;;31.90;11.70;;;;;;;0.74;100.00;98330.38;4841439;29;20532;-66
2021/12/16 01:57:13;;;;;;;26.80;12.18;;;;;;;0.43;100.00;98331.28;4918208;29;19919;-66
2021/12/16 01:59:19;;;;;;;27.60;11.80;;;;;;;0.51;100.00;98330.81;4903159;29;20091;-67
2021/12/16 02:01:45;;;;;;;26.40;11.70;;;;;;;0.64;100.00;98324.13;4923631;29;20477;-66
2021/12/16 02:04:21;;;;;;;27.95;11.77;;;;;;;0.77;100.00;98326.34;4918728;29;20102;-67
2021/12/16 02:09:35;;;;;;;23.35;10.85;;;;;;;0.73;100.00;98322.53;4916990;29;20130;-67
2021/12/16 02:12:31;;;;;;;23.10;10.27;;;;;;;0.80;100.00;98312.34;4923906;29;20498;-66
2021/12/16 02:31:48;;;;;;;30.77;11.52;;;;;;;0.12;100.00;98315.72;4904974;29;20497;-68
2021/12/16 02:34:30;;;;;;;25.88;10.43;;;;;;;0.07;100.00;98314.88;4919271;29;20071;-67
2021/12/16 02:36:56;;;;;;;28.00;11.20;;;;;;;0.04;100.00;98318.91;4924002;29;20473;-65
2021/12/16 02:39:27;;;;;;;28.92;11.88;;;;;;;-0.02;100.00;98314.53;4918888;29;20062;-68
2021/12/16 02:41:59;;;;;;;27.08;12.93;;;;;;;-0.02;100.00;98318.06;4923058;29;20043;-65
2021/12/16 02:44:32;;;;;;;28.55;12.02;;;;;;;-0.06;100.00;98326.91;4918178;29;20246;-67
2021/12/16 02:49:48;;;;;;;28.38;12.45;;;;;;;0.05;100.00;98322.41;4922741;29;20086;-69
2021/12/16 02:52:18;;;;;;;28.13;12.02;;;;;;;-0.01;100.00;98313.47;4917019;29;20103;-66
2021/12/16 02:54:44;;;;;;;25.98;12.43;;;;;;;0.00;100.00;98309.72;4924467;29;20051;-66
2021/12/16 02:57:10;;;;;;;26.85;12.15;;;;;;;0.01;100.00;98313.22;4918550;29;20054;-66
2021/12/16 02:59:36;;;;;;;29.05;12.05;;;;;;;0.00;100.00;98312.41;4922382;29;20047;-65
2021/12/16 03:02:08;;;;;;;29.42;11.70;;;;;;;-0.01;100.00;98308.91;4923464;29;20067;-67
2021/12/16 03:04:35;;;;;;;29.77;13.30;;;;;;;0.07;100.00;98304.09;4922000;29;20047;-68
2021/12/16 03:07:02;;;;;;;29.70;12.65;;;;;;;0.04;100.00;98315.38;4922345;29;20044;-67
2021/12/16 03:10:17;;;;;;;31.00;12.65;;;;;;;0.06;100.00;98315.97;4911311;29;20960;-67
2021/12/16 03:15:14;;;;;;;30.55;11.88;;;;;;;-0.01;100.00;98318.88;4922921;29;20075;-70
2021/12/16 03:17:52;;;;;;;28.58;12.00;;;;;;;-0.02;100.00;98322.63;4917382;29;20044;-68
2021/12/16 03:20:31;;;;;;;27.90;11.85;;;;;;;0.07;100.00;98326.44;4917243;29;20048;-66
2021/12/16 03:36:14;;;;;;;33.40;13.18;;;;;;;0.14;100.00;98321.66;4922760;29;20118;-67
2021/12/16 03:38:42;;;;;;;29.75;11.90;;;;;;;0.04;100.00;98323.47;4920471;29;20497;-66
2021/12/16 03:41:09;;;;;;;31.93;13.47;;;;;;;0.01;100.00;98324.81;4917752;29;20056;-66
2021/12/16 03:43:36;;;;;;;32.55;12.65;;;;;;;0.06;100.00;98327.53;4922287;29;20403;-67
2021/12/16 03:48:49;;;;;;;29.38;12.10;;;;;;;0.12;100.00;98328.38;4921228;29;20040;-67
2021/12/16 03:51:26;;;;;;;30.45;13.55;;;;;;;0.04;100.00;98326.16;4913433;28;20050;-67
2021/12/16 03:53:55;;;;;;;31.17;13.27;;;;;;;0.03;100.00;98322.66;4906152;29;20490;-68
2021/12/16 03:56:23;;;;;;;32.50;12.95;;;;;;;0.02;100.00;98325.59;4902341;29;20052;-67
2021/12/16 03:58:49;;;;;;;32.33;12.48;;;;;;;0.00;100.00;98328.59;4907007;29;20040;-66
2021/12/16 04:01:17;;;;;;;33.70;13.13;;;;;;;0.02;100.00;98331.00;4902977;29;20119;-67
2021/12/16 04:03:43;;;;;;;33.00;13.18;;;;;;;0.07;100.00;98331.84;4914110;29;20052;-67
2021/12/16 04:06:10;;;;;;;40.58;16.38;;;;;;;0.41;100.00;98328.03;4925290;29;20070;-67
2021/12/16 04:08:37;;;;;;;36.90;13.88;;;;;;;0.16;100.00;98332.19;4935793;29;20465;-67
2021/12/16 04:11:16;;;;;;;28.27;12.40;;;;;;;0.04;100.00;98332.38;4929470;29;20090;-68
2021/12/16 04:13:53;;;;;;;28.45;12.60;;;;;;;0.05;100.00;98330.47;4926951;29;20055;-67
2021/12/16 04:16:21;;;;;;;35.17;13.60;;;;;;;0.17;100.00;98334.63;4919284;29;20091;-67
2021/12/16 04:18:47;;;;;;;35.63;14.00;;;;;;;0.18;100.00;98335.41;4925491;29;20103;-67
2021/12/16 04:21:12;;;;;;;40.03;15.40;;;;;;;0.11;100.00;98340.22;4917945;29;20051;-66
2021/12/16 04:23:38;;;;;;;33.60;13.48;;;;;;;0.14;100.00;98339.72;4923819;29;20036;-67
2021/12/16 04:26:03;;;;;;;34.67;13.75;;;;;;;0.23;100.00;98338.16;4921775;29;20087;-69
2021/12/16 04:28:32;;;;;;;32.53;13.27;;;;;;;0.40;100.00;98334.47;4925161;29;20043;-66
2021/12/16 04:30:58;;;;;;;33.75;14.18;;;;;;;0.43;100.00;98340.16;4922634;29;20047;-68
2021/12/16 04:33:24;;;;;;;37.05;15.20;;;;;;;0.35;100.00;98346.88;4920358;29;20545;-67
2021/12/16 04:35:50;;;;;;;33.40;13.13;;;;;;;0.27;100.00;98339.28;4921847;29;20035;-66
2021/12/16 04:38:16;;;;;;;34.78;14.95;;;;;;;0.41;100.00;98336.94;4919284;29;20055;-68
2021/12/16 04:40:47;;;;;;;39.83;17.50;;;;;;;0.52;100.00;98343.19;4925690;29;20048;-67
2021/12/16 04:43:20;;;;;;;28.40;12.43;;;;;;;0.33;100.00;98342.81;4924252;29;20061;-67
2021/12/16 04:45:46;;;;;;;31.42;13.63;;;;;;;0.11;100.00;98346.44;4932337;29;20050;-67
2021/12/16 04:48:12;;;;;;;34.25;14.23;;;;;;;0.13;100.00;98354.28;4923479;29;20518;-68
2021/12/16 04:50:38;;;;;;;34.67;15.10;;;;;;;0.02;100.00;98349.84;4923730;29;20061;-68
2021/12/16 04:53:03;;;;;;;41.95;14.77;;;;;;;0.06;100.00;98357.19;4922762;29;20043;-69
2021/12/16 04:55:29;;;;;;;40.60;14.93;;;;;;;0.14;100.00;98354.00;4923285;29;20497;-67
2021/12/16 04:57:55;;;;;;;42.33;16.40;;;;;;;0.04;100.00;98358.47;4926805;29;20501;-67
2021/12/16 05:00:23;;;;;;;38.08;15.57;;;;;;;-0.01;100.00;98370.03;4917002;29;20052;-67
2021/12/16 05:02:52;;;;;;;37.60;15.13;;;;;;;-0.03;100.00;98370.31;4923440;29;20044;-69
2021/12/16 05:05:18;;;;;;;36.65;15.13;;;;;;;0.08;100.00;98368.50;4918838;29;20480;-69
2021/12/16 05:07:47;;;;;;;39.40;15.43;;;;;;;0.04;100.00;98371.97;4923781;29;20044;-67
2021/12/16 05:10:18;;;;;;;36.92;15.68;;;;;;;-0.05;100.00;98363.56;4924182;29;20044;-65
2021/12/16 05:12:50;;;;;;;39.63;16.33;;;;;;;-0.04;100.00;98370.56;4924687;29;20074;-68
2021/12/16 05:15:19;;;;;;;39.35;16.42;;;;;;;-0.03;100.00;98380.28;4920364;29;20052;-68
2021/12/16 05:17:50;;;;;;;39.53;16.05;;;;;;;-0.06;100.00;98386.97;4923408;29;20090;-68
2021/12/16 05:20:21;;;;;;;39.30;15.00;;;;;;;-0.02;100.00;98384.56;4922101;29;20401;-69
2021/12/16 05:28:19;;;;;;;39.65;14.75;;;;;;;-0.02;100.00;98390.78;4920713;29;20043;-68
2021/12/16 05:30:45;;;;;;;41.03;16.33;;;;;;;-0.02;100.00;98398.03;4925793;29;20047;-68
2021/12/16 05:33:11;;;;;;;39.60;15.50;;;;;;;-0.11;100.00;98402.28;4919872;29;20046;-68
2021/12/16 05:35:37;;;;;;;38.30;14.60;;;;;;;-0.10;100.00;98401.22;4924390;29;20040;-67
2021/12/16 05:38:03;;;;;;;38.05;14.20;;;;;;;-0.11;100.00;98407.66;4916548;28;20032;-67
2021/12/16 05:40:30;;;;;;;39.90;15.15;;;;;;;-0.11;100.00;98410.34;4905975;29;20048;-68
2021/12/16 05:43:01;;;;;;;38.63;15.40;;;;;;;-0.10;100.00;98410.09;4905399;29;20093;-67
2021/12/16 05:45:27;;;;;;;40.80;15.55;;;;;;;-0.07;100.00;98408.78;4919026;29;20047;-67
2021/12/16 05:47:54;;;;;;;45.08;15.82;;;;;;;-0.01;100.00;98413.94;4922236;29;20398;-67
2021/12/16 05:50:21;;;;;;;42.35;14.98;;;;;;;-0.09;100.00;98414.44;4919400;29;20048;-68
2021/12/16 05:52:46;;;;;;;37.97;15.93;;;;;;;-0.09;100.00;98425.22;4922918;29;20118;-67
2021/12/16 05:55:13;;;;;;;35.47;14.90;;;;;;;0.10;100.00;98416.75;4922015;29;20126;-67
2021/12/16 05:57:40;;;;;;;38.97;16.63;;;;;;;-0.07;100.00;98420.38;4924880;29;20032;-67
2021/12/16 06:00:12;;;;;;;37.78;16.58;;;;;;;-0.12;100.00;98425.72;4917410;29;20184;-67
2021/12/16 06:02:38;;;;;;;43.42;17.30;;;;;;;0.03;100.00;98424.22;4915784;29;20036;-64
2021/12/16 06:05:04;;;;;;;38.88;16.83;;;;;;;-0.01;100.00;98424.72;4921545;29;20071;-68
2021/12/16 06:07:31;;;;;;;41.78;17.05;;;;;;;0.15;100.00;98430.28;4922895;29;20140;-67
2021/12/16 06:09:56;;;;;;;39.28;16.55;;;;;;;0.12;100.00;98438.84;4923715;29;20485;-65
2021/12/16 06:12:24;;;;;;;43.78;16.80;;;;;;;0.14;100.00;98439.41;4918354;29;20149;-66
2021/12/16 06:15:04;;;;;;;42.85;17.95;;;;;;;0.12;100.00;98439.66;4925834;29;20409;-68
2021/12/16 06:28:22;;;;;;;34.53;15.18;;;;;;;0.18;100.00;98437.81;4917570;29;20805;-67
2021/12/16 06:30:48;;;;;;;41.03;15.38;;;;;;;0.36;100.00;98433.94;4923979;29;20046;-67
2021/12/16 06:33:16;;;;;;;32.17;14.82;;;;;;;0.60;100.00;98433.59;4919592;29;20048;-66
2021/12/16 06:35:42;;;;;;;30.33;13.38;;;;;;;0.41;100.00;98425.88;4922390;29;20478;-68
2021/12/16 06:38:11;;;;;;;31.40;13.75;;;;;;;0.39;100.00;98428.03;4901518;29;20040;-69
2021/12/16 06:40:36;;;;;;;28.92;13.15;;;;;;;0.49;100.00;98438.09;4928399;29;20639;-68
2021/12/16 06:43:08;;;;;;;25.83;11.35;;;;;;;0.50;100.00;98440.50;4913552;29;20130;-70
2021/12/16 06:45:38;;;;;;;30.10;13.32;;;;;;;0.66;100.00;98440.63;4908759;29;20040;-68
2021/12/16 06:48:15;;;;;;;30.73;12.95;;;;;;;0.65;100.00;98444.38;4918160;29;20488;-72
2021/12/16 06:53:13;;;;;;;29.60;14.13;;;;;;;0.09;100.00;98448.28;4917127;29;20509;-69
2021/12/16 06:55:49;;;;;;;30.02;13.48;;;;;;;-0.03;100.00;98456.50;4922779;29;20043;-67
2021/12/16 06:58:27;;;;;;;30.83;12.55;;;;;;;-0.10;100.00;98453.19;4916682;29;20118;-66
2021/12/16 07:01:16;;;;;;;34.15;14.38;;;;;;;-0.11;100.00;98456.97;4912459;29;20433;-68
2021/12/16 07:03:49;;;;;;;;;;;;;;;-0.18;100.00;98472.53;4906905;29;20095;-65
2021/12/16 07:06:27;;;;;;;32.67;12.93;;;;;;;-0.20;100.00;98472.78;4896810;29;19940;-67
2021/12/16 07:08:56;;;;;;;33.80;13.32;;;;;;;-0.19;100.00;98484.34;4923714;29;20039;-65
2021/12/16 07:11:23;;;;;;;31.67;13.55;;;;;;;-0.07;100.00;98478.84;4913459;29;20528;-66
2021/12/16 07:14:01;;;;;;;31.80;13.93;;;;;;;-0.07;100.00;98481.53;4922494;29;20040;-65
2021/12/16 07:16:30;;;;;;;34.03;14.05;;;;;;;-0.19;100.00;98478.97;4919022;29;20138;-66
2021/12/16 07:18:57;;;;;;;36.60;14.90;;;;;;;-0.18;100.00;98486.00;4907908;29;20397;-67
2021/12/16 07:21:23;;;;;;;31.10;13.45;;;;;;;-0.13;100.00;98477.94;4917101;28;20062;-66
2021/12/16 07:23:49;;;;;;;32.45;13.82;;;;;;;-0.22;100.00;98496.44;4923068;29;20135;-67
2021/12/16 07:26:15;;;;;;;32.28;15.15;;;;;;;-0.26;100.00;98492.63;4919252;29;20047;-66
2021/12/16 07:28:41;;;;;;;32.83;13.70;;;;;;;-0.24;100.00;98487.78;4927746;29;20115;-67
2021/12/16 07:31:06;;;;;;;32.20;14.32;;;;;;;-0.13;100.00;98485.22;4923415;29;20051;-67
2021/12/16 07:33:32;;;;;;;30.02;13.35;;;;;;;-0.23;100.00;98492.13;4927322;29;20139;-68
2021/12/16 07:36:00;;;;;;;38.08;14.60;;;;;;;-0.23;100.00;98488.63;4925132;29;20095;-67
2021/12/16 07:38:26;;;;;;;33.72;14.35;;;;;;;-0.21;100.00;98491.88;4917272;29;20048;-67
2021/12/16 07:40:53;;;;;;;32.22;13.50;;;;;;;0.12;100.00;98487.34;4926465;29;20031;-66
2021/12/16 07:43:39;;;;;;;37.83;15.65;;;;;;;0.27;100.00;98479.44;4920481;29;20048;-66
2021/12/16 07:46:05;;;;;;;34.33;14.00;;;;;;;0.48;100.00;98484.97;4918953;29;20054;-70
2021/12/16 07:48:31;;;;;;;35.22;14.38;;;;;;;0.51;100.00;98487.97;4927022;29;20123;-68
2021/12/16 07:50:59;;;;;;;40.17;15.68;;;;;;;0.61;100.00;98491.81;4925895;29;20386;-68
2021/12/16 07:53:25;;;;;;;46.53;17.10;;;;;;;0.69;100.00;98480.56;4921490;29;20787;-69
2021/12/16 07:55:51;;;;;;;27.75;13.65;;;;;;;0.62;100.00;98491.56;4926057;29;20051;-66
2021/12/16 07:58:19;;;;;;;34.58;16.83;;;;;;;0.54;100.00;98490.16;4920177;29;20055;-67
2021/12/16 08:00:46;;;;;;;33.55;15.32;;;;;;;0.42;100.00;98483.31;4926466;29;20564;-65
2021/12/16 08:03:13;;;;;;;27.45;13.55;;;;;;;0.21;100.00;98487.72;4919561;29;20370;-65
2021/12/16 08:05:46;;;;;;;35.75;14.52;;;;;;;0.34;100.00;98489.97;4924496;29;20453;-65
2021/12/16 08:08:11;;;;;;;34.55;15.23;;;;;;;0.42;100.00;98494.13;4921937;29;20050;-68
2021/12/16 08:10:37;;;;;;;27.40;12.30;;;;;;;0.26;100.00;98496.66;4928816;29;20444;-66
2021/12/16 08:13:03;;;;;;;26.70;12.55;;;;;;;0.21;100.00;98493.09;4922773;29;20062;-73
2021/12/16 08:15:29;;;;;;;21.70;11.13;;;;;;;0.69;100.00;98491.38;4923385;29;20043;-67
2021/12/16 08:17:55;;;;;;;24.38;12.65;;;;;;;0.54;100.00;98492.88;4923635;29;20036;-67
2021/12/16 08:20:22;;;;;;;30.48;12.77;;;;;;;0.34;100.00;98493.50;4921116;29;20035;-67
2021/12/16 08:22:50;;;;;;;32.63;13.63;;;;;;;0.24;100.00;98498.00;4927508;29;20430;-68
2021/12/16 08:25:19;;;;;;;28.02;12.68;;;;;;;0.34;100.00;98500.75;4922069;29;20102;-68
2021/12/16 08:27:45;;;;;;;27.95;13.32;;;;;;;0.21;100.00;98498.50;4920966;29;20051;-68
2021/12/16 08:30:14;;;;;;;31.15;13.60;;;;;;;0.55;100.00;98496.38;4912421;29;20106;-69
2021/12/16 08:32:40;;;;;;;65.55;32.38;;;;;;;0.30;100.00;98507.75;4919324;29;20039;-68
2021/12/16 08:35:07;;;;;;;28.13;13.23;;;;;;;0.25;100.00;98505.78;4920336;29;20370;-65
2021/12/16 08:37:32;;;;;;;31.23;15.40;;;;;;;0.13;100.00;98519.44;4924621;29;20138;-64
2021/12/16 08:39:58;;;;;;;28.45;14.18;;;;;;;0.16;100.00;98524.31;4925026;29;20160;-65
2021/12/16 08:42:27;;;;;;;44.58;26.27;;;;;;;0.12;100.00;98525.88;4922722;29;20048;-66
2021/12/16 08:44:52;;;;;;;27.42;12.75;;;;;;;0.06;100.00;98518.03;4923184;29;20138;-64
2021/12/16 08:47:21;;;;;;;25.48;12.50;;;;;;;0.34;100.00;98522.31;4925111;29;20074;-65
2021/12/16 08:49:47;;;;;;;29.73;12.20;;;;;;;0.24;100.00;98525.75;4928820;28;20039;-66
2021/12/16 08:52:19;;;;;;;23.83;11.77;;;;;;;0.11;100.00;98526.13;4921873;29;20051;-66
2021/12/16 08:54:45;;;;;;;23.42;11.45;;;;;;;0.18;100.00;98516.81;4924747;29;20047;-64
2021/12/16 08:57:11;;;;;;;26.58;12.02;;;;;;;0.07;100.00;98525.81;4919752;29;20040;-66
2021/12/16 08:59:37;;;;;;;25.95;12.35;;;;;;;0.06;100.00;98524.22;4922223;29;20047;-67
2021/12/16 09:02:03;;;;;;;24.42;10.50;;;;;;;0.11;100.00;98537.75;4919944;29;20051;-65
2021/12/16 09:04:29;;;;;;;32.55;14.38;;;;;;;0.20;100.00;98540.81;4923121;29;20433;-65
2021/12/16 09:07:01;;;;;;;25.77;12.38;;;;;;;0.28;100.00;98534.13;4925205;29;20053;-68
2021/12/16 09:09:32;;;;;;;25.75;12.65;;;;;;;0.08;100.00;98545.53;4920994;29;20071;-65
2021/12/16 09:12:14;;;;;;;48.05;22.55;;;;;;;0.18;100.00;98546.44;4921833;29;20044;-65
2021/12/16 09:14:41;;;;;;;33.60;15.90;;;;;;;0.20;100.00;98538.09;4918161;29;20039;-65
2021/12/16 09:17:11;;;;;;;64.15;28.20;;;;;;;0.36;100.00;98536.34;4919537;29;20051;-65
2021/12/16 09:19:42;;;;;;;31.58;12.70;;;;;;;0.42;100.00;98539.94;4922710;29;20047;-64
2021/12/16 09:22:10;;;;;;;29.35;12.80;;;;;;;0.43;100.00;98545.03;4918357;29;20119;-64
2021/12/16 09:24:35;;;;;;;27.40;13.80;;;;;;;0.59;100.00;98550.59;4906144;29;20043;-66
2021/12/16 09:27:01;;;;;;;33.92;13.45;;;;;;;0.38;100.00;98553.91;4918121;29;20039;-65
2021/12/16 09:29:26;;;;;;;28.17;11.85;;;;;;;0.51;100.00;98552.69;4917870;29;20044;-65
2021/12/16 09:31:52;;;;;;;30.55;16.17;;;;;;;0.49;100.00;98557.53;4924344;29;20059;-65
2021/12/16 09:34:17;;;;;;;27.40;11.85;;;;;;;0.44;100.00;98572.84;4920171;29;20059;-66
2021/12/16 09:36:46;;;;;;;27.60;12.65;;;;;;;0.40;100.00;98569.84;4924841;29;20047;-65
2021/12/16 09:39:16;;;;;;;28.67;12.77;;;;;;;0.54;100.00;98562.13;4920388;29;20102;-62
2021/12/16 09:41:45;;;;;;;32.45;13.45;;;;;;;0.63;100.00;98559.78;4924723;29;20099;-68
2021/12/16 09:44:12;;;;;;;28.40;13.75;;;;;;;0.80;100.00;98560.50;4919956;28;20083;-68
2021/12/16 09:46:39;;;;;;;27.15;12.38;;;;;;;1.15;100.00;98561.81;4924125;29;20054;-68
2021/12/16 09:49:04;;;;;;;24.83;12.45;;;;;;;1.47;100.00;98556.34;4918990;29;20066;-73
2021/12/16 09:51:34;;;;;;;37.47;17.23;;;;;;;1.36;100.00;98554.69;4924335;29;20044;-67
2021/12/16 09:54:07;;;;;;;25.27;12.27;;;;;;;1.31;100.00;98565.44;4922793;29;20118;-68
2021/12/16 09:56:34;;;;;;;22.73;13.10;;;;;;;1.39;100.00;98564.13;4922802;29;20044;-68
2021/12/16 09:59:03;;;;;;;26.13;12.98;;;;;;;1.86;100.00;98564.13;4924686;29;20123;-68
2021/12/16 10:01:29;;;;;;;23.10;11.38;;;;;;;2.24;100.00;98562.06;4920560;29;20517;-70
2021/12/16 10:04:02;;;;;;;20.20;11.30;;;;;;;2.60;100.00;98559.44;4924794;29;20047;-68
2021/12/16 10:06:29;;;;;;;19.15;10.85;;;;;;;2.79;100.00;98558.91;4923193;29;20043;-69
2021/12/16 10:08:55;;;;;;;19.23;8.45;;;;;;;2.35;100.00;98559.41;4924189;29;20058;-69
2021/12/16 10:11:20;;;;;;;19.73;8.95;;;;;;;2.35;100.00;98548.59;4918834;29;20401;-68
2021/12/16 10:14:00;;;;;;;18.90;8.75;;;;;;;1.82;100.00;98543.28;4924586;29;20055;-68
2021/12/16 10:19:13;;;;;;;20.25;9.93;;;;;;;3.42;100.00;98534.19;4918682;29;20054;-69
2021/12/16 10:21:41;;;;;;;22.55;9.93;;;;;;;3.66;100.00;98534.41;4924251;29;20044;-66
2021/12/16 10:24:30;;;;;;;17.65;8.55;;;;;;;3.54;100.00;98539.34;4918409;29;20062;-68
2021/12/16 10:27:10;;;;;;;11.67;5.70;;;;;;;3.22;100.00;98532.34;4919011;29;20043;-67
2021/12/16 10:29:57;;;;;;;16.02;7.65;;;;;;;2.87;100.00;98537.53;4904179;29;20371;-68
2021/12/16 10:32:42;;;;;;;17.27;8.63;;;;;;;2.99;100.00;98544.56;4916832;29;20608;-69
2021/12/16 10:35:12;;;;;;;18.50;8.38;;;;;;;2.45;100.00;98535.09;4917908;29;20044;-73
2021/12/16 10:37:42;;;;;;;17.80;8.75;;;;;;;3.06;100.00;98535.09;4915204;29;20058;-67
2021/12/16 10:40:32;;;;;;;18.42;9.00;;;;;;;3.11;100.00;98547.81;4918506;29;20477;-67
2021/12/16 10:43:03;;;;;;;17.38;9.27;;;;;;;2.43;100.00;98543.47;4923330;29;20050;-67
2021/12/16 10:45:47;;;;;;;20.13;9.52;;;;;;;2.12;100.00;98547.19;4921433;29;20047;-67
2021/12/16 10:48:21;;;;;;;16.30;8.98;;;;;;;1.96;100.00;98535.50;4918707;29;20050;-68
2021/12/16 10:51:01;;;;;;;21.40;9.85;;;;;;;2.32;100.00;98528.28;4922477;29;20044;-68
2021/12/16 10:53:45;;;;;;;19.17;9.40;;;;;;;2.87;100.00;98537.53;4919812;29;20123;-68
2021/12/16 10:56:11;;;;;;;15.38;8.77;;;;;;;2.73;100.00;98538.34;4918806;29;20036;-69
2021/12/16 10:59:04;;;;;;;16.95;8.18;;;;;;;2.73;100.00;98530.22;4924543;29;20148;-69
2021/12/16 11:01:39;;;;;;;20.50;12.45;;;;;;;2.54;100.00;98527.22;4924245;29;20046;-68
2021/12/16 11:04:09;;;;;;;14.85;7.25;;;;;;;3.02;100.00;98519.66;4920197;29;20128;-69
2021/12/16 11:06:43;;;;;;;13.38;6.47;;;;;;;3.58;100.00;98518.72;4927117;29;20054;-68
2021/12/16 11:09:24;;;;;;;15.55;8.40;;;;;;;3.89;100.00;98511.28;4922177;29;20078;-67
2021/12/16 11:12:17;;;;;;;15.60;6.82;;;;;;;3.61;100.00;98508.13;4925326;29;20054;-66
2021/12/16 11:14:51;;;;;;;14.52;6.47;;;;;;;3.70;100.00;98502.97;4922969;29;20051;-67
2021/12/16 11:17:18;;;;;;;14.82;7.55;;;;;;;3.63;100.00;98502.44;4923200;29;20054;-67
2021/12/16 11:20:00;;;;;;;17.10;9.75;;;;;;;3.77;100.00;98503.47;4929682;29;20044;-67
2021/12/16 11:22:33;;;;;;;12.23;6.63;;;;;;;2.98;100.00;98500.44;4923705;29;20111;-68
2021/12/16 11:25:20;;;;;;;16.23;8.13;;;;;;;2.58;100.00;98507.50;4928244;29;20035;-67
2021/12/16 11:27:54;;;;;;;16.55;7.95;;;;;;;2.77;100.00;98496.13;4927028;29;20159;-68
2021/12/16 11:30:25;;;;;;;16.95;8.82;;;;;;;3.28;100.00;98501.47;4921499;29;20095;-68
2021/12/16 11:33:03;;;;;;;19.65;8.27;;;;;;;3.67;100.00;98494.56;4920412;29;20052;-70
2021/12/16 11:35:33;;;;;;;14.90;7.25;;;;;;;4.05;100.00;98494.94;4921788;29;20079;-67
2021/12/16 11:38:09;;;;;;;19.60;8.45;;;;;;;4.38;99.20;98496.91;4927628;29;20098;-69
2021/12/16 11:40:52;;;;;;;16.52;8.27;;;;;;;4.15;98.29;98495.69;4922912;29;20039;-68
2021/12/16 11:43:30;;;;;;;15.20;8.32;;;;;;;4.14;98.52;98499.50;4921275;29;20055;-67
2021/12/16 11:45:55;;;;;;;20.65;10.63;;;;;;;3.83;99.35;98494.25;4926026;29;20044;-67
2021/12/16 11:48:36;;;;;;;19.40;9.45;;;;;;;4.17;99.74;98500.84;4922453;29;20198;-67
2021/12/16 11:51:08;;;;;;;23.02;8.93;;;;;;;4.37;97.58;98502.59;4921645;29;20417;-70
2021/12/16 11:53:40;;;;;;;17.85;7.95;;;;;;;4.62;96.35;98496.19;4929404;29;20118;-68
2021/12/16 11:56:07;;;;;;;61.83;27.67;;;;;;;4.48;97.23;98497.91;4921686;29;20099;-68
2021/12/16 11:58:33;;;;;;;18.65;9.15;;;;;;;4.38;98.06;98496.09;4925927;29;20634;-67
2021/12/16 12:00:58;;;;;;;23.33;10.05;;;;;;;4.20;96.72;98492.13;4922606;29;20044;-66
2021/12/16 12:03:33;;;;;;;17.83;9.57;;;;;;;4.20;96.59;98494.84;4921400;29;20082;-68
2021/12/16 12:05:58;;;;;;;62.50;31.23;;;;;;;4.36;97.89;98490.16;4927477;29;20048;-67
2021/12/16 12:08:27;;;;;;;17.83;7.78;;;;;;;4.01;97.92;98490.06;4927660;29;20054;-69
2021/12/16 12:11:02;;;;;;;16.13;7.03;;;;;;;3.91;99.29;98494.75;4928492;29;20047;-68
2021/12/16 12:13:29;;;;;;;21.15;9.57;;;;;;;4.20;98.43;98495.66;4921342;29;20076;-66
2021/12/16 12:16:08;;;;;;;17.90;8.45;;;;;;;4.09;97.53;98485.97;4925504;29;20047;-67
2021/12/16 12:18:45;;;;;;;13.63;7.90;;;;;;;4.27;96.79;98487.22;4927962;29;20044;-69
2021/12/16 12:21:36;;;;;;;12.38;6.50;;;;;;;4.48;96.80;98478.91;4923226;29;20043;-69
2021/12/16 12:24:31;;;;;;;14.05;7.22;;;;;;;4.96;93.17;98484.50;4932795;29;20043;-69
2021/12/16 12:27:09;;;;;;;14.65;6.60;;;;;;;5.24;90.89;98485.59;4922799;29;20075;-67
2021/12/16 12:29:39;;;;;;;17.67;8.05;;;;;;;5.71;89.31;98481.22;4925705;29;20047;-66
2021/12/16 12:32:09;;;;;;;12.70;7.65;;;;;;;5.45;87.40;98488.06;4921547;29;20051;-67
2021/12/16 12:34:37;;;;;;;12.57;6.93;;;;;;;5.24;89.25;98476.59;4926951;29;20520;-68
2021/12/16 12:37:06;;;;;;;14.43;6.40;;;;;;;5.06;90.21;98481.69;4923533;29;20054;-68
2021/12/16 12:39:37;;;;;;;17.27;7.93;;;;;;;4.88;91.77;98480.50;4926102;29;20051;-68
2021/12/16 12:42:05;;;;;;;17.55;6.68;;;;;;;4.73;91.84;98483.34;4912629;29;20448;-68
2021/12/16 12:44:30;;;;;;;12.90;6.60;;;;;;;4.74;92.11;98482.25;4917650;29;20117;-66
2021/12/16 12:47:00;;;;;;;15.90;7.15;;;;;;;4.48;93.78;98487.06;4926191;29;20051;-67
2021/12/16 12:49:28;;;;;;;20.40;8.90;;;;;;;4.59;94.33;98473.13;4920956;29;20055;-67
2021/12/16 12:52:04;;;;;;;46.53;15.52;;;;;;;4.46;95.81;98473.78;4926244;29;20044;-67
2021/12/16 12:54:31;;;;;;;12.25;6.28;;;;;;;4.53;95.15;98471.53;4925283;29;20087;-68
2021/12/16 12:57:20;;;;;;;12.80;6.63;;;;;;;4.58;94.68;98478.84;4924782;29;20050;-66
2021/12/16 12:59:46;;;;;;;22.35;7.88;;;;;;;4.77;94.89;98476.22;4911099;29;20055;-67
2021/12/16 13:02:26;;;;;;;12.20;6.13;;;;;;;4.83;92.61;98477.03;4919681;29;20063;-67
2021/12/16 13:04:54;;;;;;;27.38;9.65;;;;;;;4.71;94.12;98477.38;4915430;29;20046;-66
2021/12/16 13:07:49;;;;;;;10.32;5.88;;;;;;;4.60;94.05;98471.22;4919271;29;20043;-67
2021/12/16 13:10:22;;;;;;;13.55;6.30;;;;;;;4.38;94.64;98472.47;4879720;29;20047;-66
2021/12/16 13:13:03;;;;;;;12.50;6.18;;;;;;;4.06;96.32;98472.16;4918841;29;20058;-66
2021/12/16 13:24:21;;;;;;;20.50;7.75;;;;;;;4.37;96.80;98473.56;4933856;28;20040;-67
2021/12/16 13:26:47;;;;;;;13.90;6.93;;;;;;;4.28;94.54;98467.13;4928432;29;20047;-67
2021/12/16 13:29:36;;;;;;;12.52;6.72;;;;;;;4.19;95.72;98471.53;4925695;29;20047;-67
2021/12/16 13:32:19;;;;;;;16.50;7.47;;;;;;;4.15;96.24;98468.56;4929820;29;20158;-67
2021/12/16 13:37:39;;;;;;;16.40;5.68;;;;;;;4.16;96.86;98467.47;4922706;29;20051;-68
2021/12/16 13:40:13;;;;;;;12.95;6.38;;;;;;;4.06;95.84;98462.13;4920103;29;20055;-68
2021/12/16 13:42:59;;;;;;;11.15;5.82;;;;;;;3.90;97.99;98466.81;4924682;29;20508;-66
2021/12/16 13:45:31;;;;;;;11.45;5.95;;;;;;;3.87;99.85;98469.28;4917991;29;20131;-67
2021/12/16 14:10:07;;;;;;;7.85;3.17;;;;;;;4.89;85.27;98467.72;4922913;29;20101;-67
2021/12/16 14:15:27;;;;;;;5.95;3.20;;;;;;;4.76;85.23;98452.91;4919377;29;20040;-67
2021/12/16 14:23:34;;;;;;;3.60;2.67;;;;;;;4.69;84.89;98458.66;4920648;29;20453;-68
2021/12/16 14:42:39;;;;;;;4.88;2.70;;;;;;;3.48;92.65;98476.22;4916724;29;20039;-68
2021/12/16 14:45:35;;;;;;;6.13;3.55;;;;;;;3.41;93.55;98483.84;4919952;29;20130;-69
2021/12/16 14:50:36;;;;;;;5.07;2.90;;;;;;;3.54;92.85;98494.06;4922717;29;20054;-68
2021/12/16 14:53:16;;;;;;;5.63;2.90;;;;;;;3.41;93.90;98490.06;4922111;29;20179;-66
2021/12/16 14:55:41;;;;;;;26.13;6.72;;;;;;;3.54;94.36;98490.56;4904133;29;20151;-66
2021/12/16 14:58:07;;;;;;;13.18;5.70;;;;;;;3.79;95.75;98487.75;4899690;29;20214;-67
2021/12/16 15:00:42;;;;;;;10.52;4.53;;;;;;;3.71;96.58;98488.34;4917032;29;20050;-66
2021/12/16 15:03:40;;;;;;;7.10;4.68;;;;;;;3.64;98.19;98491.34;4918039;29;20044;-67
2021/12/16 15:06:11;;;;;;;12.02;5.13;;;;;;;3.54;98.89;98490.56;4907801;29;20051;-68
2021/12/16 15:09:41;;;;;;;9.32;5.25;;;;;;;3.45;100.00;98490.31;4923681;29;20151;-66
2021/12/16 15:44:54;;;;;;;21.73;7.47;;;;;;;2.59;100.00;98508.31;4921903;29;19981;-67